CheckWX is a tool to help pilots better visualize weather data.  It is not intended as a substitute for an official pre-flight weather briefing.

12:47:30 UTC

ETNW TAF
Wunstorf Airport
Germany
TAF ETNW 261026Z 2611/2711 32012G22KT 9999 NSW FEW030 TEMPO 2612/2618 33015G28KT 9999 NSW SCT030 SCT240 TEMPO 2621/2706 33007KT 9999 NSW BKN010 BY ETGL

Jun-26@
11:00 UTC

Jun-26 @ 11:00 UTC

Jun-27@
11:00 UTC

Jun-27 @ 11:00 UTC

TAF ETNW 261026Z 2611/2711 32012G22KT 9999 NSW FEW030
Wind
  • 320° at 12 KTS
  • {Gusting to 22 KTS
Conditions
No significant weather
Cloud Levels
  • Few at 3,000' AGL

Jun-26@
12:00 UTC

Jun-26 @ 12:00 UTC

Jun-26@
18:00 UTC

Jun-26 @ 18:00 UTC

TEMPO 2612/2618 33015G28KT 9999 NSW SCT030 SCT240

Temporary

Temporary Changes expected for less than half the time period

Wind
  • 330° at 15 KTS
  • {Gusting to 28 KTS
Conditions
No significant weather
Cloud Levels
  • Scattered at 3,000' AGL
  • Scattered at 24,000' AGL

Jun-26@
21:00 UTC

Jun-26 @ 21:00 UTC

Jun-27@
06:00 UTC

Jun-27 @ 06:00 UTC

TEMPO 2621/2706 33007KT 9999 NSW BKN010 BY ETGL

Temporary

Temporary Changes expected for less than half the time period

Wind
  • 330° at 7 KTS
Conditions
No significant weather
Cloud Levels
  • Broken at 1,000' AGL